sensor_id;sensor_type;location;lat;lon;timestamp;P1;durP1;ratioP1;P2;durP2;ratioP2
18574;SDS011;9417;16.484;102.872;2023-02-01T00:00:17;107.45;;;69.53;;
18574;SDS011;9417;16.484;102.872;2023-02-01T00:02:25;101.05;;;69.00;;
18574;SDS011;9417;16.484;102.872;2023-02-01T00:04:32;101.97;;;68.97;;
18574;SDS011;9417;16.484;102.872;2023-02-01T00:06:39;104.93;;;70.10;;
18574;SDS011;9417;16.484;102.872;2023-02-01T00:08:46;111.90;;;70.93;;
18574;SDS011;9417;16.484;102.872;2023-02-01T00:10:59;106.18;;;70.10;;
18574;SDS011;9417;16.484;102.872;2023-02-01T00:13:09;106.28;;;70.18;;
18574;SDS011;9417;16.484;102.872;2023-02-01T00:15:16;102.68;;;67.78;;
18574;SDS011;9417;16.484;102.872;2023-02-01T00:17:24;98.88;;;64.35;;
18574;SDS011;9417;16.484;102.872;2023-02-01T00:19:31;101.15;;;65.43;;
18574;SDS011;9417;16.484;102.872;2023-02-01T00:21:39;97.63;;;64.75;;
18574;SDS011;9417;16.484;102.872;2023-02-01T00:23:47;102.53;;;65.38;;
18574;SDS011;9417;16.484;102.872;2023-02-01T00:25:54;97.45;;;64.32;;
18574;SDS011;9417;16.484;102.872;2023-02-01T00:28:07;104.07;;;63.88;;
18574;SDS011;9417;16.484;102.872;2023-02-01T00:30:14;104.50;;;68.25;;
18574;SDS011;9417;16.484;102.872;2023-02-01T00:32:22;102.68;;;66.53;;
18574;SDS011;9417;16.484;102.872;2023-02-01T00:34:29;102.63;;;69.10;;
18574;SDS011;9417;16.484;102.872;2023-02-01T00:36:36;100.40;;;67.78;;
18574;SDS011;9417;16.484;102.872;2023-02-01T00:38:43;100.68;;;66.45;;
18574;SDS011;9417;16.484;102.872;2023-02-01T00:40:50;105.80;;;69.72;;
18574;SDS011;9417;16.484;102.872;2023-02-01T00:42:57;107.50;;;69.45;;
18574;SDS011;9417;16.484;102.872;2023-02-01T00:45:07;118.35;;;70.50;;
18574;SDS011;9417;16.484;102.872;2023-02-01T00:47:15;122.50;;;75.65;;
18574;SDS011;9417;16.484;102.872;2023-02-01T00:49:24;129.38;;;75.30;;
18574;SDS011;9417;16.484;102.872;2023-02-01T00:51:31;121.75;;;75.70;;
18574;SDS011;9417;16.484;102.872;2023-02-01T00:53:38;124.60;;;76.28;;
18574;SDS011;9417;16.484;102.872;2023-02-01T00:55:46;120.03;;;75.70;;
18574;SDS011;9417;16.484;102.872;2023-02-01T00:57:54;124.47;;;76.40;;
18574;SDS011;9417;16.484;102.872;2023-02-01T01:00:01;122.88;;;79.13;;
18574;SDS011;9417;16.484;102.872;2023-02-01T01:02:10;130.80;;;79.97;;
18574;SDS011;9417;16.484;102.872;2023-02-01T01:04:18;127.85;;;82.13;;
18574;SDS011;9417;16.484;102.872;2023-02-01T01:06:25;120.13;;;83.38;;
18574;SDS011;9417;16.484;102.872;2023-02-01T01:08:34;133.07;;;83.00;;
18574;SDS011;9417;16.484;102.872;2023-02-01T01:10:41;137.65;;;88.60;;
18574;SDS011;9417;16.484;102.872;2023-02-01T01:12:49;134.80;;;86.28;;
18574;SDS011;9417;16.484;102.872;2023-02-01T01:14:55;137.77;;;87.30;;
18574;SDS011;9417;16.484;102.872;2023-02-01T01:17:03;135.20;;;88.50;;
18574;SDS011;9417;16.484;102.872;2023-02-01T01:19:11;134.38;;;85.68;;
18574;SDS011;9417;16.484;102.872;2023-02-01T01:21:18;137.32;;;85.80;;
18574;SDS011;9417;16.484;102.872;2023-02-01T01:23:26;132.05;;;84.90;;
18574;SDS011;9417;16.484;102.872;2023-02-01T01:25:36;140.25;;;86.47;;
18574;SDS011;9417;16.484;102.872;2023-02-01T01:27:44;131.37;;;82.60;;
18574;SDS011;9417;16.484;102.872;2023-02-01T01:29:52;133.05;;;86.15;;
18574;SDS011;9417;16.484;102.872;2023-02-01T01:31:59;138.90;;;90.75;;
18574;SDS011;9417;16.484;102.872;2023-02-01T01:34:06;135.13;;;90.15;;
18574;SDS011;9417;16.484;102.872;2023-02-01T01:36:16;139.32;;;89.13;;
18574;SDS011;9417;16.484;102.872;2023-02-01T01:38:23;136.57;;;88.72;;
18574;SDS011;9417;16.484;102.872;2023-02-01T01:40:30;140.02;;;88.97;;
18574;SDS011;9417;16.484;102.872;2023-02-01T01:42:37;135.90;;;85.95;;
18574;SDS011;9417;16.484;102.872;2023-02-01T01:44:59;138.98;;;88.63;;
18574;SDS011;9417;16.484;102.872;2023-02-01T01:47:08;133.40;;;85.43;;
18574;SDS011;9417;16.484;102.872;2023-02-01T01:49:16;132.25;;;84.25;;
18574;SDS011;9417;16.484;102.872;2023-02-01T01:51:28;143.15;;;87.72;;
18574;SDS011;9417;16.484;102.872;2023-02-01T01:53:37;150.25;;;92.43;;
18574;SDS011;9417;16.484;102.872;2023-02-01T01:55:48;145.18;;;87.80;;
18574;SDS011;9417;16.484;102.872;2023-02-01T01:57:59;136.90;;;88.93;;
18574;SDS011;9417;16.484;102.872;2023-02-01T02:00:11;137.65;;;89.65;;
18574;SDS011;9417;16.484;102.872;2023-02-01T02:02:20;136.38;;;86.97;;
18574;SDS011;9417;16.484;102.872;2023-02-01T02:04:28;129.93;;;83.93;;
18574;SDS011;9417;16.484;102.872;2023-02-01T02:06:40;131.20;;;83.47;;
18574;SDS011;9417;16.484;102.872;2023-02-01T02:08:51;136.43;;;85.47;;
18574;SDS011;9417;16.484;102.872;2023-02-01T02:10:58;124.15;;;80.30;;
18574;SDS011;9417;16.484;102.872;2023-02-01T02:13:05;125.63;;;78.95;;
18574;SDS011;9417;16.484;102.872;2023-02-01T02:15:13;119.47;;;78.40;;
18574;SDS011;9417;16.484;102.872;2023-02-01T02:17:30;125.15;;;80.85;;
18574;SDS011;9417;16.484;102.872;2023-02-01T02:19:47;122.80;;;78.47;;
18574;SDS011;9417;16.484;102.872;2023-02-01T02:22:19;121.88;;;74.25;;
18574;SDS011;9417;16.484;102.872;2023-02-01T02:24:46;128.35;;;79.50;;
18574;SDS011;9417;16.484;102.872;2023-02-01T02:27:16;115.75;;;75.90;;
18574;SDS011;9417;16.484;102.872;2023-02-01T02:29:36;112.15;;;73.40;;
18574;SDS011;9417;16.484;102.872;2023-02-01T02:32:20;116.00;;;71.80;;
18574;SDS011;9417;16.484;102.872;2023-02-01T02:34:41;118.05;;;73.75;;
18574;SDS011;9417;16.484;102.872;2023-02-01T02:36:55;112.20;;;71.55;;
18574;SDS011;9417;16.484;102.872;2023-02-01T02:41:27;109.65;;;68.25;;
18574;SDS011;9417;16.484;102.872;2023-02-01T02:43:55;102.53;;;67.53;;
18574;SDS011;9417;16.484;102.872;2023-02-01T02:46:21;108.00;;;70.25;;
18574;SDS011;9417;16.484;102.872;2023-02-01T02:49:04;99.95;;;62.97;;
18574;SDS011;9417;16.484;102.872;2023-02-01T02:51:19;98.82;;;62.88;;
18574;SDS011;9417;16.484;102.872;2023-02-01T02:56:14;88.57;;;51.83;;
18574;SDS011;9417;16.484;102.872;2023-02-01T02:58:41;91.05;;;55.78;;
18574;SDS011;9417;16.484;102.872;2023-02-01T03:01:07;86.47;;;55.97;;
18574;SDS011;9417;16.484;102.872;2023-02-01T03:03:31;98.68;;;63.03;;
18574;SDS011;9417;16.484;102.872;2023-02-01T03:05:57;95.50;;;57.53;;
18574;SDS011;9417;16.484;102.872;2023-02-01T03:08:09;85.53;;;53.47;;
18574;SDS011;9417;16.484;102.872;2023-02-01T03:10:22;84.20;;;51.08;;
18574;SDS011;9417;16.484;102.872;2023-02-01T03:12:33;75.88;;;48.03;;
18574;SDS011;9417;16.484;102.872;2023-02-01T03:15:05;69.82;;;44.45;;
18574;SDS011;9417;16.484;102.872;2023-02-01T03:17:18;66.45;;;42.53;;
18574;SDS011;9417;16.484;102.872;2023-02-01T03:19:32;63.50;;;41.13;;
18574;SDS011;9417;16.484;102.872;2023-02-01T03:21:43;60.85;;;41.40;;
18574;SDS011;9417;16.484;102.872;2023-02-01T03:23:56;65.95;;;40.33;;
18574;SDS011;9417;16.484;102.872;2023-02-01T03:26:07;64.72;;;40.70;;
18574;SDS011;9417;16.484;102.872;2023-02-01T03:28:20;63.25;;;41.35;;
18574;SDS011;9417;16.484;102.872;2023-02-01T03:30:32;65.75;;;41.22;;
18574;SDS011;9417;16.484;102.872;2023-02-01T03:32:44;70.90;;;41.17;;
18574;SDS011;9417;16.484;102.872;2023-02-01T03:35:08;69.05;;;41.65;;
18574;SDS011;9417;16.484;102.872;2023-02-01T03:37:16;52.83;;;36.00;;
18574;SDS011;9417;16.484;102.872;2023-02-01T03:39:32;57.40;;;36.47;;
18574;SDS011;9417;16.484;102.872;2023-02-01T03:41:44;51.75;;;35.05;;
18574;SDS011;9417;16.484;102.872;2023-02-01T03:43:55;60.50;;;36.17;;
18574;SDS011;9417;16.484;102.872;2023-02-01T03:46:07;56.60;;;36.75;;
18574;SDS011;9417;16.484;102.872;2023-02-01T03:48:20;50.60;;;34.00;;
18574;SDS011;9417;16.484;102.872;2023-02-01T03:50:29;58.25;;;33.90;;
18574;SDS011;9417;16.484;102.872;2023-02-01T03:52:42;51.17;;;34.65;;
18574;SDS011;9417;16.484;102.872;2023-02-01T03:54:55;51.97;;;32.75;;
18574;SDS011;9417;16.484;102.872;2023-02-01T03:57:05;55.75;;;33.67;;
18574;SDS011;9417;16.484;102.872;2023-02-01T03:59:15;45.15;;;30.48;;
18574;SDS011;9417;16.484;102.872;2023-02-01T04:01:22;47.33;;;30.48;;
18574;SDS011;9417;16.484;102.872;2023-02-01T04:03:30;47.85;;;29.70;;
18574;SDS011;9417;16.484;102.872;2023-02-01T04:05:37;48.42;;;30.02;;
18574;SDS011;9417;16.484;102.872;2023-02-01T04:07:45;46.95;;;30.80;;
18574;SDS011;9417;16.484;102.872;2023-02-01T04:09:52;39.65;;;27.15;;
18574;SDS011;9417;16.484;102.872;2023-02-01T04:12:00;42.60;;;26.70;;
18574;SDS011;9417;16.484;102.872;2023-02-01T04:14:08;41.15;;;28.13;;
18574;SDS011;9417;16.484;102.872;2023-02-01T04:16:15;45.47;;;28.30;;
18574;SDS011;9417;16.484;102.872;2023-02-01T04:18:22;37.25;;;26.95;;
18574;SDS011;9417;16.484;102.872;2023-02-01T04:20:29;41.33;;;27.35;;
18574;SDS011;9417;16.484;102.872;2023-02-01T04:22:36;42.30;;;25.55;;
18574;SDS011;9417;16.484;102.872;2023-02-01T04:24:44;43.13;;;26.90;;
18574;SDS011;9417;16.484;102.872;2023-02-01T04:26:51;36.97;;;25.63;;
18574;SDS011;9417;16.484;102.872;2023-02-01T04:29:00;38.30;;;25.58;;
18574;SDS011;9417;16.484;102.872;2023-02-01T04:31:07;33.42;;;22.63;;
18574;SDS011;9417;16.484;102.872;2023-02-01T04:33:14;35.05;;;22.15;;
18574;SDS011;9417;16.484;102.872;2023-02-01T04:35:21;32.45;;;22.48;;
18574;SDS011;9417;16.484;102.872;2023-02-01T04:37:28;34.45;;;24.02;;
18574;SDS011;9417;16.484;102.872;2023-02-01T04:39:35;37.75;;;25.38;;
18574;SDS011;9417;16.484;102.872;2023-02-01T04:41:43;37.58;;;26.05;;
18574;SDS011;9417;16.484;102.872;2023-02-01T04:43:50;39.42;;;25.40;;
18574;SDS011;9417;16.484;102.872;2023-02-01T04:45:59;40.35;;;26.40;;
18574;SDS011;9417;16.484;102.872;2023-02-01T04:48:06;42.85;;;25.83;;
18574;SDS011;9417;16.484;102.872;2023-02-01T04:50:13;42.83;;;25.77;;
18574;SDS011;9417;16.484;102.872;2023-02-01T04:52:21;36.28;;;24.98;;
18574;SDS011;9417;16.484;102.872;2023-02-01T04:54:28;38.85;;;24.50;;
18574;SDS011;9417;16.484;102.872;2023-02-01T04:56:35;34.25;;;23.33;;
18574;SDS011;9417;16.484;102.872;2023-02-01T04:58:42;32.65;;;23.10;;
18574;SDS011;9417;16.484;102.872;2023-02-01T05:00:49;35.78;;;22.90;;
18574;SDS011;9417;16.484;102.872;2023-02-01T05:02:58;35.97;;;23.75;;
18574;SDS011;9417;16.484;102.872;2023-02-01T05:05:06;37.53;;;24.42;;
18574;SDS011;9417;16.484;102.872;2023-02-01T05:07:13;31.40;;;21.73;;
18574;SDS011;9417;16.484;102.872;2023-02-01T05:09:21;38.85;;;23.42;;
18574;SDS011;9417;16.484;102.872;2023-02-01T05:11:28;29.67;;;23.05;;
18574;SDS011;9417;16.484;102.872;2023-02-01T05:13:51;36.30;;;21.75;;
18574;SDS011;9417;16.484;102.872;2023-02-01T05:15:58;36.90;;;23.40;;
18574;SDS011;9417;16.484;102.872;2023-02-01T05:18:07;31.77;;;22.77;;
18574;SDS011;9417;16.484;102.872;2023-02-01T05:20:15;39.33;;;24.65;;
18574;SDS011;9417;16.484;102.872;2023-02-01T05:22:23;32.13;;;22.95;;
18574;SDS011;9417;16.484;102.872;2023-02-01T05:24:30;37.05;;;23.38;;
18574;SDS011;9417;16.484;102.872;2023-02-01T05:26:37;34.03;;;22.02;;
18574;SDS011;9417;16.484;102.872;2023-02-01T05:28:45;33.33;;;22.58;;
18574;SDS011;9417;16.484;102.872;2023-02-01T05:30:55;37.95;;;23.90;;
18574;SDS011;9417;16.484;102.872;2023-02-01T05:33:02;35.38;;;22.75;;
18574;SDS011;9417;16.484;102.872;2023-02-01T05:35:11;32.00;;;22.05;;
18574;SDS011;9417;16.484;102.872;2023-02-01T05:37:19;33.83;;;22.92;;
18574;SDS011;9417;16.484;102.872;2023-02-01T05:39:25;32.10;;;22.85;;
18574;SDS011;9417;16.484;102.872;2023-02-01T05:41:33;37.47;;;22.52;;
18574;SDS011;9417;16.484;102.872;2023-02-01T05:43:40;37.60;;;23.10;;
18574;SDS011;9417;16.484;102.872;2023-02-01T05:45:47;33.10;;;23.33;;
18574;SDS011;9417;16.484;102.872;2023-02-01T05:47:54;35.33;;;23.88;;
18574;SDS011;9417;16.484;102.872;2023-02-01T05:50:01;36.35;;;23.58;;
18574;SDS011;9417;16.484;102.872;2023-02-01T05:52:10;39.75;;;23.50;;
18574;SDS011;9417;16.484;102.872;2023-02-01T05:54:17;30.48;;;22.75;;
18574;SDS011;9417;16.484;102.872;2023-02-01T05:56:24;37.45;;;24.40;;
18574;SDS011;9417;16.484;102.872;2023-02-01T05:58:31;35.28;;;22.67;;
18574;SDS011;9417;16.484;102.872;2023-02-01T06:00:38;32.97;;;22.70;;
18574;SDS011;9417;16.484;102.872;2023-02-01T06:02:45;36.53;;;23.20;;
18574;SDS011;9417;16.484;102.872;2023-02-01T06:04:52;30.67;;;22.10;;
18574;SDS011;9417;16.484;102.872;2023-02-01T06:07:00;28.52;;;21.05;;
18574;SDS011;9417;16.484;102.872;2023-02-01T06:09:08;34.63;;;23.52;;
18574;SDS011;9417;16.484;102.872;2023-02-01T06:11:15;33.03;;;22.88;;
18574;SDS011;9417;16.484;102.872;2023-02-01T06:13:33;35.58;;;23.55;;
18574;SDS011;9417;16.484;102.872;2023-02-01T06:15:42;34.00;;;21.70;;
18574;SDS011;9417;16.484;102.872;2023-02-01T06:17:49;29.95;;;21.23;;
18574;SDS011;9417;16.484;102.872;2023-02-01T06:19:56;34.63;;;22.25;;
18574;SDS011;9417;16.484;102.872;2023-02-01T06:22:03;29.98;;;21.98;;
18574;SDS011;9417;16.484;102.872;2023-02-01T06:24:12;29.88;;;21.88;;
18574;SDS011;9417;16.484;102.872;2023-02-01T06:26:19;34.35;;;20.95;;
18574;SDS011;9417;16.484;102.872;2023-02-01T06:28:26;32.58;;;21.88;;
18574;SDS011;9417;16.484;102.872;2023-02-01T06:30:34;33.00;;;21.77;;
18574;SDS011;9417;16.484;102.872;2023-02-01T06:32:41;34.08;;;21.38;;
18574;SDS011;9417;16.484;102.872;2023-02-01T06:34:48;29.25;;;21.27;;
18574;SDS011;9417;16.484;102.872;2023-02-01T06:36:56;31.90;;;21.98;;
18574;SDS011;9417;16.484;102.872;2023-02-01T06:39:03;28.92;;;20.25;;
18574;SDS011;9417;16.484;102.872;2023-02-01T06:41:12;31.52;;;21.35;;
18574;SDS011;9417;16.484;102.872;2023-02-01T06:43:19;30.55;;;21.33;;
18574;SDS011;9417;16.484;102.872;2023-02-01T06:45:26;32.08;;;22.10;;
18574;SDS011;9417;16.484;102.872;2023-02-01T06:47:33;28.27;;;21.70;;
18574;SDS011;9417;16.484;102.872;2023-02-01T06:49:40;32.03;;;21.48;;
18574;SDS011;9417;16.484;102.872;2023-02-01T06:51:47;30.17;;;21.17;;
18574;SDS011;9417;16.484;102.872;2023-02-01T06:53:54;29.88;;;21.30;;
18574;SDS011;9417;16.484;102.872;2023-02-01T06:56:02;30.10;;;21.52;;
18574;SDS011;9417;16.484;102.872;2023-02-01T06:58:11;32.90;;;21.58;;
18574;SDS011;9417;16.484;102.872;2023-02-01T07:00:19;32.72;;;21.30;;
18574;SDS011;9417;16.484;102.872;2023-02-01T07:02:27;38.67;;;22.02;;
18574;SDS011;9417;16.484;102.872;2023-02-01T07:04:34;28.00;;;20.65;;
18574;SDS011;9417;16.484;102.872;2023-02-01T07:06:41;34.70;;;21.83;;
18574;SDS011;9417;16.484;102.872;2023-02-01T07:08:48;29.02;;;21.83;;
18574;SDS011;9417;16.484;102.872;2023-02-01T07:11:01;30.92;;;21.50;;
18574;SDS011;9417;16.484;102.872;2023-02-01T07:13:08;32.35;;;21.73;;
18574;SDS011;9417;16.484;102.872;2023-02-01T07:15:17;28.67;;;21.48;;
18574;SDS011;9417;16.484;102.872;2023-02-01T07:17:27;31.73;;;22.08;;
18574;SDS011;9417;16.484;102.872;2023-02-01T07:19:34;31.27;;;21.55;;
18574;SDS011;9417;16.484;102.872;2023-02-01T07:21:41;37.20;;;21.48;;
18574;SDS011;9417;16.484;102.872;2023-02-01T07:23:48;33.03;;;22.30;;
18574;SDS011;9417;16.484;102.872;2023-02-01T07:25:55;30.38;;;22.77;;
18574;SDS011;9417;16.484;102.872;2023-02-01T07:28:03;29.77;;;21.33;;
18574;SDS011;9417;16.484;102.872;2023-02-01T07:30:13;27.33;;;21.10;;
18574;SDS011;9417;16.484;102.872;2023-02-01T07:32:20;33.50;;;22.52;;
18574;SDS011;9417;16.484;102.872;2023-02-01T07:34:27;32.28;;;20.20;;
18574;SDS011;9417;16.484;102.872;2023-02-01T07:36:34;31.05;;;21.52;;
18574;SDS011;9417;16.484;102.872;2023-02-01T07:38:42;28.17;;;21.23;;
18574;SDS011;9417;16.484;102.872;2023-02-01T07:40:50;25.60;;;19.75;;
18574;SDS011;9417;16.484;102.872;2023-02-01T07:43:02;29.20;;;20.20;;
18574;SDS011;9417;16.484;102.872;2023-02-01T07:45:09;28.70;;;21.08;;
18574;SDS011;9417;16.484;102.872;2023-02-01T07:47:23;29.40;;;20.25;;
18574;SDS011;9417;16.484;102.872;2023-02-01T07:49:30;30.25;;;19.88;;
18574;SDS011;9417;16.484;102.872;2023-02-01T07:51:37;29.58;;;20.92;;
18574;SDS011;9417;16.484;102.872;2023-02-01T07:53:44;31.45;;;20.05;;
18574;SDS011;9417;16.484;102.872;2023-02-01T07:55:52;29.33;;;20.52;;
18574;SDS011;9417;16.484;102.872;2023-02-01T07:58:02;30.85;;;20.23;;
18574;SDS011;9417;16.484;102.872;2023-02-01T08:00:09;30.33;;;21.13;;
18574;SDS011;9417;16.484;102.872;2023-02-01T08:02:35;31.70;;;20.42;;
18574;SDS011;9417;16.484;102.872;2023-02-01T08:04:42;30.70;;;20.88;;
18574;SDS011;9417;16.484;102.872;2023-02-01T08:06:49;34.80;;;20.92;;
18574;SDS011;9417;16.484;102.872;2023-02-01T08:08:56;30.15;;;20.80;;
18574;SDS011;9417;16.484;102.872;2023-02-01T08:11:04;31.45;;;21.58;;
18574;SDS011;9417;16.484;102.872;2023-02-01T08:13:12;31.75;;;21.63;;
18574;SDS011;9417;16.484;102.872;2023-02-01T08:15:21;28.02;;;22.02;;
18574;SDS011;9417;16.484;102.872;2023-02-01T08:17:28;29.85;;;20.80;;
18574;SDS011;9417;16.484;102.872;2023-02-01T08:19:35;32.40;;;21.38;;
18574;SDS011;9417;16.484;102.872;2023-02-01T08:21:42;29.73;;;21.55;;
18574;SDS011;9417;16.484;102.872;2023-02-01T08:23:52;33.10;;;21.27;;
18574;SDS011;9417;16.484;102.872;2023-02-01T08:26:06;33.20;;;22.70;;
18574;SDS011;9417;16.484;102.872;2023-02-01T08:28:15;29.58;;;21.88;;
18574;SDS011;9417;16.484;102.872;2023-02-01T08:30:23;32.35;;;23.75;;
18574;SDS011;9417;16.484;102.872;2023-02-01T08:32:31;33.22;;;22.23;;
18574;SDS011;9417;16.484;102.872;2023-02-01T08:34:39;28.80;;;20.77;;
18574;SDS011;9417;16.484;102.872;2023-02-01T08:36:46;28.83;;;20.33;;
18574;SDS011;9417;16.484;102.872;2023-02-01T08:38:55;31.48;;;21.92;;
18574;SDS011;9417;16.484;102.872;2023-02-01T08:41:06;29.70;;;21.33;;
18574;SDS011;9417;16.484;102.872;2023-02-01T08:43:13;29.77;;;21.35;;
18574;SDS011;9417;16.484;102.872;2023-02-01T08:45:20;28.23;;;20.13;;
18574;SDS011;9417;16.484;102.872;2023-02-01T08:47:30;25.98;;;19.88;;
18574;SDS011;9417;16.484;102.872;2023-02-01T08:49:37;27.08;;;19.38;;
18574;SDS011;9417;16.484;102.872;2023-02-01T08:51:44;28.98;;;20.10;;
18574;SDS011;9417;16.484;102.872;2023-02-01T08:53:51;27.25;;;19.45;;
18574;SDS011;9417;16.484;102.872;2023-02-01T08:55:58;24.35;;;19.27;;
18574;SDS011;9417;16.484;102.872;2023-02-01T08:58:05;26.27;;;19.08;;
18574;SDS011;9417;16.484;102.872;2023-02-01T09:00:17;28.23;;;20.30;;
18574;SDS011;9417;16.484;102.872;2023-02-01T09:02:27;28.95;;;20.40;;
18574;SDS011;9417;16.484;102.872;2023-02-01T09:04:34;28.05;;;20.52;;
18574;SDS011;9417;16.484;102.872;2023-02-01T09:06:41;30.55;;;21.55;;
18574;SDS011;9417;16.484;102.872;2023-02-01T09:08:48;32.80;;;21.02;;
18574;SDS011;9417;16.484;102.872;2023-02-01T09:10:58;31.45;;;20.90;;
18574;SDS011;9417;16.484;102.872;2023-02-01T09:13:06;28.92;;;20.30;;
18574;SDS011;9417;16.484;102.872;2023-02-01T09:15:14;33.67;;;21.33;;
18574;SDS011;9417;16.484;102.872;2023-02-01T09:17:21;29.02;;;21.08;;
18574;SDS011;9417;16.484;102.872;2023-02-01T09:21:43;30.50;;;21.35;;
18574;SDS011;9417;16.484;102.872;2023-02-01T09:23:50;33.55;;;22.35;;
18574;SDS011;9417;16.484;102.872;2023-02-01T09:25:58;29.50;;;21.98;;
18574;SDS011;9417;16.484;102.872;2023-02-01T09:28:05;34.20;;;22.02;;
18574;SDS011;9417;16.484;102.872;2023-02-01T09:30:13;32.13;;;21.83;;
18574;SDS011;9417;16.484;102.872;2023-02-01T09:32:20;28.25;;;20.55;;
18574;SDS011;9417;16.484;102.872;2023-02-01T09:34:28;30.40;;;20.85;;
18574;SDS011;9417;16.484;102.872;2023-02-01T09:36:37;31.35;;;22.52;;
18574;SDS011;9417;16.484;102.872;2023-02-01T09:38:44;33.00;;;22.60;;
18574;SDS011;9417;16.484;102.872;2023-02-01T09:40:55;31.83;;;21.55;;
18574;SDS011;9417;16.484;102.872;2023-02-01T09:43:09;32.90;;;22.40;;
18574;SDS011;9417;16.484;102.872;2023-02-01T09:45:27;32.08;;;22.55;;
18574;SDS011;9417;16.484;102.872;2023-02-01T09:47:41;39.08;;;22.77;;
18574;SDS011;9417;16.484;102.872;2023-02-01T09:49:55;31.85;;;21.48;;
18574;SDS011;9417;16.484;102.872;2023-02-01T09:52:07;34.03;;;22.35;;
18574;SDS011;9417;16.484;102.872;2023-02-01T09:54:18;32.10;;;21.92;;
18574;SDS011;9417;16.484;102.872;2023-02-01T09:56:30;29.48;;;21.38;;
18574;SDS011;9417;16.484;102.872;2023-02-01T09:58:47;35.28;;;22.77;;
18574;SDS011;9417;16.484;102.872;2023-02-01T10:00:58;30.90;;;21.77;;
18574;SDS011;9417;16.484;102.872;2023-02-01T10:03:10;31.98;;;22.38;;
18574;SDS011;9417;16.484;102.872;2023-02-01T10:05:21;29.45;;;22.23;;
18574;SDS011;9417;16.484;102.872;2023-02-01T10:07:38;35.70;;;23.17;;
18574;SDS011;9417;16.484;102.872;2023-02-01T10:09:54;34.22;;;21.95;;
18574;SDS011;9417;16.484;102.872;2023-02-01T10:14:51;34.53;;;23.17;;
18574;SDS011;9417;16.484;102.872;2023-02-01T10:17:07;35.22;;;23.85;;
18574;SDS011;9417;16.484;102.872;2023-02-01T10:19:30;34.38;;;23.73;;
18574;SDS011;9417;16.484;102.872;2023-02-01T10:21:48;34.88;;;24.58;;
18574;SDS011;9417;16.484;102.872;2023-02-01T10:24:05;38.92;;;25.92;;
18574;SDS011;9417;16.484;102.872;2023-02-01T10:26:24;38.45;;;26.15;;
18574;SDS011;9417;16.484;102.872;2023-02-01T10:28:34;43.45;;;27.15;;
18574;SDS011;9417;16.484;102.872;2023-02-01T10:30:44;41.53;;;25.83;;
18574;SDS011;9417;16.484;102.872;2023-02-01T10:32:54;34.33;;;25.10;;
18574;SDS011;9417;16.484;102.872;2023-02-01T10:35:08;38.00;;;24.98;;
18574;SDS011;9417;16.484;102.872;2023-02-01T10:37:24;38.45;;;26.35;;
18574;SDS011;9417;16.484;102.872;2023-02-01T10:39:36;40.13;;;26.88;;
18574;SDS011;9417;16.484;102.872;2023-02-01T10:41:43;38.28;;;26.40;;
18574;SDS011;9417;16.484;102.872;2023-02-01T10:43:50;50.97;;;28.92;;
18574;SDS011;9417;16.484;102.872;2023-02-01T10:46:00;49.13;;;29.90;;
18574;SDS011;9417;16.484;102.872;2023-02-01T10:48:07;49.28;;;30.83;;
18574;SDS011;9417;16.484;102.872;2023-02-01T10:50:17;52.63;;;31.27;;
18574;SDS011;9417;16.484;102.872;2023-02-01T10:52:35;50.53;;;32.03;;
18574;SDS011;9417;16.484;102.872;2023-02-01T10:54:48;49.25;;;31.05;;
18574;SDS011;9417;16.484;102.872;2023-02-01T10:56:54;50.97;;;29.88;;
18574;SDS011;9417;16.484;102.872;2023-02-01T10:59:03;50.72;;;31.08;;
18574;SDS011;9417;16.484;102.872;2023-02-01T11:01:15;55.60;;;31.08;;
18574;SDS011;9417;16.484;102.872;2023-02-01T11:03:31;50.83;;;30.73;;
18574;SDS011;9417;16.484;102.872;2023-02-01T11:05:48;54.05;;;32.80;;
18574;SDS011;9417;16.484;102.872;2023-02-01T11:07:55;51.30;;;33.58;;
18574;SDS011;9417;16.484;102.872;2023-02-01T11:10:06;47.75;;;32.92;;
18574;SDS011;9417;16.484;102.872;2023-02-01T11:12:36;48.95;;;33.35;;
18574;SDS011;9417;16.484;102.872;2023-02-01T11:14:44;52.35;;;37.40;;
18574;SDS011;9417;16.484;102.872;2023-02-01T11:16:54;52.90;;;34.47;;
18574;SDS011;9417;16.484;102.872;2023-02-01T11:19:03;54.67;;;33.67;;
18574;SDS011;9417;16.484;102.872;2023-02-01T11:21:11;48.55;;;32.15;;
18574;SDS011;9417;16.484;102.872;2023-02-01T11:23:21;58.70;;;35.38;;
18574;SDS011;9417;16.484;102.872;2023-02-01T11:25:31;49.35;;;33.42;;
18574;SDS011;9417;16.484;102.872;2023-02-01T11:27:41;54.75;;;36.33;;
18574;SDS011;9417;16.484;102.872;2023-02-01T11:29:58;55.45;;;34.95;;
18574;SDS011;9417;16.484;102.872;2023-02-01T11:32:08;50.97;;;34.25;;
18574;SDS011;9417;16.484;102.872;2023-02-01T11:34:18;61.45;;;39.38;;
18574;SDS011;9417;16.484;102.872;2023-02-01T11:36:29;67.43;;;41.92;;
18574;SDS011;9417;16.484;102.872;2023-02-01T11:38:38;80.43;;;49.30;;
18574;SDS011;9417;16.484;102.872;2023-02-01T11:40:46;88.93;;;51.13;;
18574;SDS011;9417;16.484;102.872;2023-02-01T11:42:54;84.05;;;50.50;;
18574;SDS011;9417;16.484;102.872;2023-02-01T11:45:17;91.20;;;53.60;;
18574;SDS011;9417;16.484;102.872;2023-02-01T11:49:34;88.90;;;53.10;;
18574;SDS011;9417;16.484;102.872;2023-02-01T11:51:44;102.80;;;60.80;;
18574;SDS011;9417;16.484;102.872;2023-02-01T11:54:02;109.57;;;67.05;;
18574;SDS011;9417;16.484;102.872;2023-02-01T11:56:25;103.10;;;63.63;;
18574;SDS011;9417;16.484;102.872;2023-02-01T11:58:54;120.28;;;67.32;;
18574;SDS011;9417;16.484;102.872;2023-02-01T12:01:29;121.18;;;63.65;;
18574;SDS011;9417;16.484;102.872;2023-02-01T12:03:59;108.32;;;59.00;;
18574;SDS011;9417;16.484;102.872;2023-02-01T12:06:26;91.05;;;55.03;;
18574;SDS011;9417;16.484;102.872;2023-02-01T12:11:17;95.88;;;52.83;;
18574;SDS011;9417;16.484;102.872;2023-02-01T12:13:38;95.03;;;56.10;;
18574;SDS011;9417;16.484;102.872;2023-02-01T12:15:56;92.07;;;53.38;;
18574;SDS011;9417;16.484;102.872;2023-02-01T12:18:20;85.72;;;52.17;;
18574;SDS011;9417;16.484;102.872;2023-02-01T12:20:58;90.90;;;53.30;;
18574;SDS011;9417;16.484;102.872;2023-02-01T12:23:17;90.35;;;50.92;;
18574;SDS011;9417;16.484;102.872;2023-02-01T12:25:35;82.45;;;51.67;;
18574;SDS011;9417;16.484;102.872;2023-02-01T12:28:00;77.38;;;50.30;;
18574;SDS011;9417;16.484;102.872;2023-02-01T12:33:10;90.00;;;49.45;;
18574;SDS011;9417;16.484;102.872;2023-02-01T12:35:36;75.18;;;48.90;;
18574;SDS011;9417;16.484;102.872;2023-02-01T12:37:57;82.72;;;47.45;;
18574;SDS011;9417;16.484;102.872;2023-02-01T12:40:19;85.10;;;47.35;;
18574;SDS011;9417;16.484;102.872;2023-02-01T12:42:36;88.28;;;51.22;;
18574;SDS011;9417;16.484;102.872;2023-02-01T12:44:48;84.50;;;51.08;;
18574;SDS011;9417;16.484;102.872;2023-02-01T12:47:00;84.00;;;50.40;;
18574;SDS011;9417;16.484;102.872;2023-02-01T12:49:11;86.63;;;50.40;;